createdAt,value
2018-09-10T00:00:59.521Z,84.66
2018-09-10T00:01:59.505Z,84.66
2018-09-10T00:02:59.485Z,84.28
2018-09-10T00:03:59.469Z,84.76
2018-09-10T00:04:59.454Z,84.76
2018-09-10T00:05:59.434Z,85.05
2018-09-10T00:06:59.417Z,85.33
2018-09-10T00:07:59.402Z,84.76
2018-09-10T00:08:59.384Z,85.14
2018-09-10T00:09:59.365Z,85.52
2018-09-10T00:10:59.348Z,84.38
2018-09-10T00:11:59.331Z,85.33
2018-09-10T00:12:59.313Z,85.24
2018-09-10T00:13:59.296Z,84.95
2018-09-10T00:14:59.277Z,85.33
2018-09-10T00:15:59.259Z,85.24
2018-09-10T00:16:59.244Z,86.10
2018-09-10T00:17:59.226Z,85.33
2018-09-10T00:18:59.206Z,86.19
2018-09-10T00:19:59.191Z,86.34
2018-09-10T00:20:59.175Z,86.19
2018-09-10T00:21:59.157Z,86.29
2018-09-10T00:22:59.141Z,85.71
2018-09-10T00:23:59.122Z,86.15
2018-09-10T00:24:59.103Z,86.24
2018-09-10T00:25:59.088Z,86.38
2018-09-10T00:26:59.070Z,86.10
2018-09-10T00:27:59.051Z,86.91
2018-09-10T00:28:59.034Z,86.86
2018-09-10T00:29:59.026Z,86.29
2018-09-10T00:30:59.000Z,86.38
2018-09-10T00:31:58.981Z,86.53
2018-09-10T00:32:58.965Z,87.01
2018-09-10T00:33:58.947Z,87.10
2018-09-10T00:34:58.928Z,86.72
2018-09-10T00:35:58.918Z,86.24
2018-09-10T00:36:58.893Z,87.29
2018-09-10T00:37:58.874Z,86.82
2018-09-10T00:38:58.857Z,86.82
2018-09-10T00:39:58.839Z,86.72
2018-09-10T00:40:58.823Z,87.01
2018-09-10T00:41:58.809Z,86.91
2018-09-10T00:42:58.786Z,86.82
2018-09-10T00:43:58.772Z,87.29
2018-09-10T00:44:58.757Z,88.06
2018-09-10T00:45:58.736Z,88.06
2018-09-10T00:46:58.717Z,87.29
2018-09-10T00:47:58.704Z,87.29
2018-09-10T00:48:58.683Z,87.29
2018-09-10T00:49:58.666Z,87.48
2018-09-10T00:50:58.682Z,87.10
2018-09-10T00:51:58.630Z,87.20
2018-09-10T00:52:58.612Z,87.77
2018-09-10T00:53:58.595Z,87.39
2018-09-10T00:54:58.577Z,86.91
2018-09-10T00:55:58.560Z,87.48
2018-09-10T00:56:58.541Z,87.87
2018-09-10T00:57:58.525Z,87.87
2018-09-10T00:58:58.507Z,87.39
2018-09-10T00:59:58.491Z,87.87
2018-09-10T01:00:58.471Z,87.87
2018-09-10T01:01:58.453Z,87.87
2018-09-10T01:02:58.435Z,88.82
2018-09-10T01:03:58.418Z,88.25
2018-09-10T01:04:58.400Z,88.54
2018-09-10T01:05:58.382Z,88.63
2018-09-10T01:06:58.363Z,88.73
2018-09-10T01:07:58.350Z,87.48
2018-09-10T01:08:58.328Z,87.73
2018-09-10T01:09:58.312Z,88.54
2018-09-10T01:10:58.292Z,88.78
2018-09-10T01:11:58.283Z,88.20
2018-09-10T01:12:58.258Z,88.49
2018-09-10T01:13:58.241Z,88.40
2018-09-10T01:14:58.221Z,88.49
2018-09-10T01:15:58.204Z,88.78
2018-09-10T01:16:58.188Z,88.97
2018-09-10T01:17:58.167Z,88.40
2018-09-10T01:18:58.150Z,89.35
2018-09-10T01:19:58.130Z,89.64
2018-09-10T01:20:58.123Z,89.83
2018-09-10T01:21:58.096Z,90.02
2018-09-10T01:22:58.079Z,90.11
2018-09-10T01:23:58.058Z,89.92
2018-09-10T01:24:58.042Z,89.92
2018-09-10T01:25:58.023Z,89.92
2018-09-10T01:26:58.005Z,90.31
2018-09-10T01:27:57.988Z,89.54
2018-09-10T01:28:57.970Z,89.64
2018-09-10T01:29:57.955Z,89.64
2018-09-10T01:30:57.933Z,89.64
2018-09-10T01:31:57.920Z,89.25
2018-09-10T01:32:57.897Z,89.54
2018-09-10T01:33:57.879Z,89.64
2018-09-10T01:34:57.866Z,89.45
2018-09-10T01:35:57.845Z,89.64
2018-09-10T01:36:57.826Z,88.97
2018-09-10T01:37:57.806Z,89.45
2018-09-10T01:38:57.789Z,88.97
2018-09-10T01:39:57.771Z,89.45
2018-09-10T01:40:57.752Z,89.06
2018-09-10T01:41:57.740Z,90.21
2018-09-10T01:42:57.717Z,89.25
2018-09-10T01:43:57.709Z,89.92
2018-09-10T01:44:57.683Z,89.54
2018-09-10T01:45:57.669Z,90.50
2018-09-10T01:46:57.645Z,90.11
2018-09-10T01:47:57.626Z,89.83
2018-09-10T01:48:57.609Z,90.11
2018-09-10T01:49:57.590Z,89.54
2018-09-10T01:50:57.571Z,90.11
2018-09-10T01:51:57.554Z,90.21
2018-09-10T01:52:57.537Z,90.40
2018-09-10T01:53:57.519Z,90.21
2018-09-10T01:54:57.499Z,90.21
2018-09-10T01:55:57.485Z,89.92
2018-09-10T01:56:57.463Z,90.21
2018-09-10T01:57:57.444Z,90.21
2018-09-10T01:58:57.425Z,91.07
2018-09-10T01:59:57.410Z,91.55
2018-09-10T02:00:57.390Z,91.07
2018-09-10T02:01:57.376Z,91.02
2018-09-10T02:02:57.361Z,90.59
2018-09-10T02:03:57.339Z,90.45
2018-09-10T02:04:57.358Z,90.21
2018-09-10T02:05:57.299Z,90.26
2018-09-10T02:06:57.282Z,90.64
2018-09-10T02:07:57.264Z,90.55
2018-09-10T02:08:57.246Z,91.55
2018-09-10T02:09:57.229Z,92.17
2018-09-10T02:10:57.207Z,91.50
2018-09-10T02:11:57.188Z,91.60
2018-09-10T02:12:57.170Z,92.07
2018-09-10T02:13:57.153Z,92.07
2018-09-10T02:14:57.134Z,91.69
2018-09-10T02:15:57.114Z,91.69
2018-09-10T02:16:57.146Z,92.50
2018-09-10T02:17:57.082Z,92.65
2018-09-10T02:18:57.062Z,93.12
2018-09-10T02:19:57.045Z,92.97
2018-09-10T02:20:57.023Z,92.74
2018-09-10T02:21:57.009Z,93.07
2018-09-10T02:22:56.988Z,93.07
2018-09-10T02:23:56.968Z,93.84
2018-09-10T02:24:56.953Z,92.97
2018-09-10T02:25:56.946Z,92.60
2018-09-10T02:26:56.913Z,92.69
2018-09-10T02:27:56.896Z,91.93
2018-09-10T02:28:56.876Z,92.31
2018-09-10T02:29:56.858Z,92.97
2018-09-10T02:30:56.837Z,92.69
2018-09-10T02:31:56.821Z,92.12
2018-09-10T02:32:56.802Z,92.69
2018-09-10T02:33:56.784Z,93.84
2018-09-10T02:34:56.767Z,92.69
2018-09-10T02:35:56.746Z,92.41
2018-09-10T02:36:56.730Z,92.60
2018-09-10T02:37:56.711Z,91.93
2018-09-10T02:38:56.693Z,91.64
2018-09-10T02:39:56.674Z,91.74
2018-09-10T02:40:56.656Z,91.93
2018-09-10T02:41:56.641Z,91.74
2018-09-10T02:42:56.620Z,92.50
2018-09-10T02:43:56.615Z,92.02
2018-09-10T02:44:56.584Z,91.64
2018-09-10T02:45:56.567Z,90.97
2018-09-10T02:46:56.550Z,91.16
2018-09-10T02:47:56.529Z,91.07
2018-09-10T02:48:56.521Z,91.16
2018-09-10T02:49:56.496Z,91.36
2018-09-10T02:50:56.472Z,91.74
2018-09-10T02:51:56.456Z,91.36
2018-09-10T02:52:56.444Z,91.16
2018-09-10T02:53:56.423Z,91.45
2018-09-10T02:54:56.431Z,91.07
2018-09-10T02:55:56.382Z,91.64
2018-09-10T02:56:56.380Z,92.12
2018-09-10T02:57:56.352Z,92.02
2018-09-10T02:58:56.328Z,92.12
2018-09-10T02:59:56.309Z,90.92
2018-09-10T03:00:56.298Z,91.07
2018-09-10T03:01:56.282Z,91.11
2018-09-10T03:02:56.256Z,92.16
2018-09-10T03:03:56.241Z,91.59
2018-09-10T03:04:56.221Z,91.78
2018-09-10T03:05:56.204Z,91.40
2018-09-10T03:06:56.187Z,91.30
2018-09-10T03:07:56.165Z,91.78
2018-09-10T03:08:56.148Z,91.78
2018-09-10T03:09:56.162Z,92.36
2018-09-10T03:10:56.112Z,91.69
2018-09-10T03:11:56.095Z,91.40
2018-09-10T03:12:56.076Z,92.16
2018-09-10T03:13:56.057Z,91.97
2018-09-10T03:14:56.039Z,91.59
2018-09-10T03:15:56.023Z,91.88
2018-09-10T03:16:56.002Z,92.16
2018-09-10T03:17:56.001Z,92.16
2018-09-10T03:18:55.967Z,92.07
2018-09-10T03:19:55.948Z,91.69
2018-09-10T03:20:55.930Z,91.21
2018-09-10T03:21:55.913Z,92.45
2018-09-10T03:22:55.895Z,91.88
2018-09-10T03:23:55.915Z,91.59
2018-09-10T03:24:55.860Z,91.88
2018-09-10T03:25:55.839Z,91.21
2018-09-10T03:26:55.825Z,91.59
2018-09-10T03:27:55.803Z,91.30
2018-09-10T03:28:55.787Z,91.40
2018-09-10T03:29:55.766Z,91.69
2018-09-10T03:30:55.750Z,91.74
2018-09-10T03:31:55.731Z,91.50
2018-09-10T03:32:55.713Z,92.16
2018-09-10T03:33:55.695Z,92.64
2018-09-10T03:34:55.675Z,92.93
2018-09-10T03:35:55.662Z,91.88
2018-09-10T03:36:55.641Z,93.02
2018-09-10T03:37:55.622Z,92.64
2018-09-10T03:38:55.601Z,92.83
2018-09-10T03:39:55.586Z,93.07
2018-09-10T03:40:55.567Z,92.60
2018-09-10T03:41:55.550Z,92.69
2018-09-10T03:42:55.531Z,92.12
2018-09-10T03:43:55.513Z,92.02
2018-09-10T03:44:55.494Z,92.88
2018-09-10T03:45:55.477Z,92.88
2018-09-10T03:46:55.458Z,92.69
2018-09-10T03:47:55.444Z,92.50
2018-09-10T03:48:55.424Z,92.69
2018-09-10T03:49:55.404Z,93.17
2018-09-10T03:50:55.385Z,92.88
2018-09-10T03:51:55.368Z,92.97
2018-09-10T03:52:55.353Z,93.17
2018-09-10T03:53:55.336Z,93.07
2018-09-10T03:54:55.316Z,93.36
2018-09-10T03:55:55.296Z,93.65
2018-09-10T03:56:55.278Z,93.17
2018-09-10T03:57:55.260Z,92.97
2018-09-10T03:58:55.239Z,92.97
2018-09-10T03:59:55.221Z,93.46
2018-09-10T04:00:55.204Z,92.97
2018-09-10T04:01:55.187Z,92.41
2018-09-10T04:02:55.167Z,92.69
2018-09-10T04:03:55.152Z,93.46
2018-09-10T04:04:55.132Z,93.65
2018-09-10T04:05:55.111Z,93.84
2018-09-10T04:06:55.094Z,92.88
2018-09-10T04:07:55.073Z,92.69
2018-09-10T04:08:55.057Z,92.69
2018-09-10T04:09:55.045Z,92.69
2018-09-10T04:10:55.024Z,93.65
2018-09-10T04:11:55.002Z,93.55
2018-09-10T04:12:54.985Z,93.65
2018-09-10T04:13:54.965Z,93.46
2018-09-10T04:14:54.950Z,93.26
2018-09-10T04:15:54.930Z,92.69
2018-09-10T04:16:54.916Z,93.17
2018-09-10T04:17:54.902Z,92.79
2018-09-10T04:18:54.875Z,92.60
2018-09-10T04:19:54.857Z,93.36
2018-09-10T04:20:54.840Z,93.46
2018-09-10T04:21:54.820Z,93.65
2018-09-10T04:22:54.801Z,93.46
2018-09-10T04:23:54.784Z,93.74
2018-09-10T04:24:54.765Z,93.65
2018-09-10T04:25:54.761Z,93.26
2018-09-10T04:26:54.726Z,93.07
2018-09-10T04:27:54.710Z,93.26
2018-09-10T04:28:54.691Z,93.17
2018-09-10T04:29:54.672Z,92.88
2018-09-10T04:30:54.664Z,93.17
2018-09-10T04:31:54.635Z,93.17
2018-09-10T04:32:54.620Z,93.26
2018-09-10T04:33:54.598Z,93.74
2018-09-10T04:34:54.581Z,93.07
2018-09-10T04:35:54.605Z,92.79
2018-09-10T04:36:54.544Z,93.55
2018-09-10T04:37:54.524Z,93.74
2018-09-10T04:38:54.506Z,93.74
2018-09-10T04:39:54.487Z,93.84
2018-09-10T04:40:54.470Z,93.26
2018-09-10T04:41:54.451Z,92.69
2018-09-10T04:42:54.432Z,93.07
2018-09-10T04:43:54.419Z,93.26
2018-09-10T04:44:54.395Z,93.26
2018-09-10T04:45:54.382Z,93.55
2018-09-10T04:46:54.356Z,93.07
2018-09-10T04:47:54.341Z,94.51
2018-09-10T04:48:54.323Z,94.41
2018-09-10T04:49:54.303Z,94.03
2018-09-10T04:50:54.284Z,93.26
2018-09-10T04:51:54.266Z,93.65
2018-09-10T04:52:54.247Z,93.65
2018-09-10T04:53:54.239Z,94.60
2018-09-10T04:54:54.211Z,94.51
2018-09-10T04:55:54.192Z,93.93
2018-09-10T04:56:54.182Z,93.84
2018-09-10T04:57:54.218Z,93.93
2018-09-10T04:58:54.138Z,94.31
2018-09-10T04:59:54.130Z,95.08
2018-09-10T05:00:54.104Z,94.12
2018-09-10T05:01:54.086Z,94.12
2018-09-10T05:02:54.061Z,94.51
2018-09-10T05:03:54.045Z,94.60
2018-09-10T05:04:54.026Z,94.41
2018-09-10T05:05:54.010Z,93.74
2018-09-10T05:06:53.989Z,94.22
2018-09-10T05:07:53.969Z,94.41
2018-09-10T05:08:53.952Z,95.56
2018-09-10T05:09:53.956Z,94.70
2018-09-10T05:10:53.916Z,94.55
2018-09-10T05:11:53.897Z,94.17
2018-09-10T05:12:53.879Z,93.50
2018-09-10T05:13:53.861Z,93.41
2018-09-10T05:14:53.841Z,93.60
2018-09-10T05:15:53.823Z,94.36
2018-09-10T05:16:53.804Z,93.79
2018-09-10T05:17:53.787Z,93.70
2018-09-10T05:18:53.769Z,93.21
2018-09-10T05:19:53.750Z,93.41
2018-09-10T05:20:53.732Z,93.50
2018-09-10T05:21:53.734Z,93.98
2018-09-10T05:22:53.695Z,93.98
2018-09-10T05:23:53.676Z,93.41
2018-09-10T05:24:53.660Z,93.50
2018-09-10T05:25:53.641Z,92.88
2018-09-10T05:26:53.626Z,92.97
2018-09-10T05:27:53.605Z,92.59
2018-09-10T05:28:53.590Z,92.88
2018-09-10T05:29:53.568Z,92.97
2018-09-10T05:30:53.551Z,92.88
2018-09-10T05:31:53.535Z,92.97
2018-09-10T05:32:53.513Z,93.26
2018-09-10T05:33:53.496Z,92.21
2018-09-10T05:34:53.475Z,92.88
2018-09-10T05:35:53.460Z,91.93
2018-09-10T05:36:53.441Z,92.02
2018-09-10T05:37:53.422Z,92.30
2018-09-10T05:38:53.410Z,92.30
2018-09-10T05:39:53.387Z,92.97
2018-09-10T05:40:53.369Z,91.93
2018-09-10T05:41:53.354Z,92.25
2018-09-10T05:42:53.336Z,91.78
2018-09-10T05:43:53.315Z,91.49
2018-09-10T05:44:53.296Z,91.49
2018-09-10T05:45:53.278Z,91.68
2018-09-10T05:46:53.262Z,91.30
2018-09-10T05:47:53.244Z,91.11
2018-09-10T05:48:53.225Z,91.30
2018-09-10T05:49:53.208Z,91.02
2018-09-10T05:50:53.200Z,91.59
2018-09-10T05:51:53.171Z,91.02
2018-09-10T05:52:53.156Z,90.82
2018-09-10T05:53:53.138Z,90.53
2018-09-10T05:54:53.122Z,90.44
2018-09-10T05:55:53.104Z,90.82
2018-09-10T05:56:53.091Z,89.87
2018-09-10T05:57:53.067Z,91.02
2018-09-10T05:58:53.048Z,91.02
2018-09-10T05:59:53.032Z,90.92
2018-09-10T06:00:53.014Z,90.25
2018-09-10T06:01:52.997Z,90.25
2018-09-10T06:02:52.978Z,90.34
2018-09-10T06:03:52.960Z,89.39
2018-09-10T06:04:52.944Z,90.48
2018-09-10T06:05:52.927Z,90.48
2018-09-10T06:06:52.908Z,90.30
2018-09-10T06:07:52.892Z,90.30
2018-09-10T06:08:52.874Z,89.53
2018-09-10T06:09:52.854Z,90.48
2018-09-10T06:10:52.849Z,89.81
2018-09-10T06:11:52.819Z,89.72
2018-09-10T06:12:52.800Z,89.81
2018-09-10T06:13:52.786Z,89.72
2018-09-10T06:14:52.767Z,89.91
2018-09-10T06:15:52.752Z,90.48
2018-09-10T06:16:52.733Z,90.10
2018-09-10T06:17:52.716Z,89.72
2018-09-10T06:18:52.697Z,89.62
2018-09-10T06:19:52.682Z,90.30
2018-09-10T06:20:52.663Z,90.30
2018-09-10T06:21:52.646Z,90.48
2018-09-10T06:22:52.627Z,90.48
2018-09-10T06:23:52.610Z,90.25
2018-09-10T06:24:52.595Z,90.30
2018-09-10T06:25:52.575Z,89.91
2018-09-10T06:26:52.572Z,89.91
2018-09-10T06:27:52.541Z,90.30
2018-09-10T06:28:52.523Z,90.67
2018-09-10T06:29:52.546Z,90.58
2018-09-10T06:30:52.489Z,90.77
2018-09-10T06:31:52.476Z,90.58
2018-09-10T06:32:52.456Z,90.30
2018-09-10T06:33:52.437Z,89.58
2018-09-10T06:34:52.423Z,90.34
2018-09-10T06:35:52.403Z,89.76
2018-09-10T06:36:52.390Z,88.62
2018-09-10T06:37:52.372Z,88.09
2018-09-10T06:38:52.352Z,87.03
2018-09-10T06:39:52.345Z,85.64
2018-09-10T06:40:52.319Z,84.68
2018-09-10T06:41:52.303Z,84.68
2018-09-10T06:42:52.288Z,83.05
2018-09-10T06:43:52.269Z,82.32
2018-09-10T06:44:52.255Z,80.79
2018-09-10T06:45:52.234Z,81.08
2018-09-10T06:46:52.222Z,80.83
2018-09-10T06:47:52.262Z,80.35
2018-09-10T06:48:52.188Z,78.57
2018-09-10T06:49:52.171Z,77.90
2018-09-10T06:50:52.156Z,77.61
2018-09-10T06:51:52.137Z,76.56
2018-09-10T06:52:52.123Z,75.82
2018-09-10T06:53:52.102Z,74.58
2018-09-10T06:54:52.149Z,74.10
2018-09-10T06:55:52.076Z,73.85
2018-09-10T06:56:52.054Z,73.88
2018-09-10T06:57:52.040Z,73.66
2018-09-10T06:58:52.024Z,71.58
2018-09-10T06:59:52.008Z,71.58
2018-09-10T07:00:51.991Z,71.04
2018-09-10T07:01:51.980Z,70.75
2018-09-10T07:02:51.960Z,68.96
2018-09-10T07:03:51.946Z,68.96
2018-09-10T07:04:51.932Z,68.09
2018-09-10T07:05:51.917Z,66.30
2018-09-10T07:06:51.901Z,65.85
2018-09-10T07:07:51.886Z,64.25
2018-09-10T07:08:51.871Z,62.76
2018-09-10T07:09:51.859Z,59.25
2018-09-10T07:10:51.841Z,59.00
2018-09-10T07:11:51.827Z,57.21
2018-09-10T07:12:51.891Z,55.11
2018-09-10T07:13:51.799Z,53.23
2018-09-10T07:14:51.785Z,51.74
2018-09-10T07:15:51.772Z,49.61
2018-09-10T07:16:51.765Z,49.32
2018-09-10T07:17:51.743Z,49.80
2018-09-10T07:18:51.918Z,49.54
2018-09-10T07:19:51.717Z,48.76
2018-09-10T07:20:51.703Z,48.00
2018-09-10T07:21:51.692Z,46.58
2018-09-10T07:22:51.678Z,46.89
2018-09-10T07:23:51.666Z,45.57
2018-09-10T07:24:51.654Z,44.38
2018-09-10T07:25:51.641Z,45.26
2018-09-10T07:26:51.634Z,44.60
2018-09-10T07:27:51.622Z,43.85
2018-09-10T07:28:51.608Z,43.09
2018-09-10T07:29:51.599Z,42.21
2018-09-10T07:30:51.582Z,40.41
2018-09-10T07:31:51.581Z,39.67
2018-09-10T07:32:51.566Z,37.65
2018-09-10T07:33:51.551Z,36.68
2018-09-10T07:34:51.545Z,35.92
2018-09-10T07:35:51.537Z,35.74
2018-09-10T07:36:51.523Z,34.57
2018-09-10T07:37:51.514Z,34.19
2018-09-10T07:38:51.506Z,33.90
2018-09-10T07:39:51.494Z,34.01
2018-09-10T07:40:51.483Z,33.75
2018-09-10T07:41:51.474Z,32.70
2018-09-10T07:42:51.470Z,32.82
2018-09-10T07:43:51.544Z,31.58
2018-09-10T07:44:51.452Z,30.22
2018-09-10T07:45:51.443Z,29.55
2018-09-10T07:46:51.436Z,28.19
2018-09-10T07:47:51.427Z,27.51
2018-09-10T07:48:51.431Z,27.84
2018-09-10T07:49:51.419Z,27.26
2018-09-10T07:50:51.407Z,27.09
2018-09-10T07:51:51.402Z,25.42
2018-09-10T07:52:51.395Z,25.63
2018-09-10T07:53:51.396Z,24.18
2018-09-10T07:54:51.385Z,22.81
2018-09-10T07:55:51.383Z,23.28
2018-09-10T07:56:51.376Z,23.28
2018-09-10T07:57:51.367Z,23.50
2018-09-10T07:58:51.362Z,22.83
2018-09-10T07:59:51.360Z,21.56
2018-09-10T08:00:51.487Z,21.59
2018-09-10T08:01:51.349Z,21.18
2018-09-10T08:02:51.414Z,21.18
2018-09-10T08:03:52.858Z,20.68
2018-09-10T08:04:51.334Z,19.87
2018-09-10T08:05:51.329Z,20.68
2018-09-10T08:06:51.325Z,20.18
2018-09-10T08:07:51.321Z,20.08
2018-09-10T08:08:51.316Z,20.07
2018-09-10T08:09:51.315Z,20.57
2018-09-10T08:10:51.307Z,20.38
2018-09-10T08:11:51.304Z,19.60
2018-09-10T08:12:51.303Z,20.01
2018-09-10T08:13:51.300Z,19.43
2018-09-10T08:14:51.300Z,19.84
2018-09-10T08:15:51.290Z,19.43
2018-09-10T08:16:51.333Z,19.73
2018-09-10T08:17:51.283Z,19.13
2018-09-10T08:18:51.279Z,19.05
2018-09-10T08:19:51.276Z,18.94
2018-09-10T08:20:51.273Z,19.30
2018-09-10T08:21:51.274Z,20.18
2018-09-10T08:22:51.267Z,19.98
2018-09-10T08:23:51.265Z,20.89
2018-09-10T08:24:51.260Z,20.09
2018-09-10T08:25:51.258Z,21.78
2018-09-10T08:26:51.254Z,20.18
2018-09-10T08:27:51.250Z,21.04
2018-09-10T08:28:51.247Z,21.71
2018-09-10T08:29:51.246Z,22.69
2018-09-10T08:30:51.243Z,22.59
2018-09-10T08:31:51.256Z,21.91
2018-09-10T08:32:51.238Z,21.81
2018-09-10T08:33:51.234Z,21.42
2018-09-10T08:34:51.231Z,22.61
2018-09-10T08:35:51.229Z,21.83
2018-09-10T08:36:51.225Z,21.15
2018-09-10T08:37:51.224Z,20.67
2018-09-10T08:38:51.243Z,20.47
2018-09-10T08:39:51.217Z,20.65
2018-09-10T08:40:51.243Z,20.76
2018-09-10T08:41:51.221Z,20.59
2018-09-10T08:42:51.235Z,20.10
2018-09-10T08:43:51.211Z,20.00
2018-09-10T08:44:51.205Z,20.17
2018-09-10T08:45:51.202Z,21.26
2018-09-10T08:46:51.199Z,20.17
2018-09-10T08:47:51.197Z,20.56
2018-09-10T08:48:51.197Z,21.16
2018-09-10T08:49:51.192Z,20.68
2018-09-10T08:50:51.189Z,20.68
2018-09-10T08:51:51.189Z,19.90
2018-09-10T08:52:51.185Z,20.59
2018-09-10T08:53:51.251Z,19.98
2018-09-10T08:54:51.639Z,20.07
2018-09-10T08:55:51.360Z,20.07
2018-09-10T08:56:51.177Z,19.96
2018-09-10T08:57:51.175Z,20.94
2018-09-10T08:58:51.172Z,21.64
2018-09-10T08:59:51.169Z,20.56
2018-09-10T09:00:51.375Z,20.23
2018-09-10T09:01:51.203Z,22.20
2018-09-10T09:02:51.165Z,21.70
2018-09-10T09:03:51.162Z,21.42
2018-09-10T09:04:51.183Z,21.21
2018-09-10T09:05:51.164Z,21.82
2018-09-10T09:06:51.154Z,21.35
2018-09-10T09:07:51.216Z,19.98
2018-09-10T09:08:51.151Z,20.28
2018-09-10T09:09:51.151Z,19.71
2018-09-10T09:10:51.148Z,20.12
2018-09-10T09:11:51.155Z,19.53
2018-09-10T09:12:51.145Z,19.33
2018-09-10T09:13:51.144Z,20.19
2018-09-10T09:14:51.140Z,20.26
2018-09-10T09:15:51.138Z,21.13
2018-09-10T09:16:51.137Z,21.79
2018-09-10T09:17:51.137Z,23.33
2018-09-10T09:18:51.134Z,23.90
2018-09-10T09:19:51.132Z,24.76
2018-09-10T09:20:51.129Z,25.03
2018-09-10T09:21:51.127Z,25.96
2018-09-10T09:22:51.125Z,27.50
2018-09-10T09:23:51.123Z,27.87
2018-09-10T09:24:51.123Z,29.13
2018-09-10T09:25:51.118Z,30.48
2018-09-10T09:26:51.116Z,29.80
2018-09-10T09:27:51.112Z,30.57
2018-09-10T09:28:51.112Z,31.25
2018-09-10T09:29:51.149Z,31.15
2018-09-10T09:30:51.104Z,31.92
2018-09-10T09:31:51.104Z,31.60
2018-09-10T09:32:51.099Z,32.18
2018-09-10T09:33:51.096Z,33.04
2018-09-10T09:34:51.092Z,34.69
2018-09-10T09:35:51.091Z,34.21
2018-09-10T09:36:51.087Z,34.11
2018-09-10T09:37:51.087Z,33.82
2018-09-10T09:38:51.083Z,34.40
2018-09-10T09:39:51.075Z,33.82
2018-09-10T09:40:51.072Z,33.78
2018-09-10T09:41:51.067Z,34.55
2018-09-10T09:42:51.066Z,34.84
2018-09-10T09:43:51.065Z,35.60
2018-09-10T09:44:51.064Z,35.88
2018-09-10T09:45:51.053Z,35.88
2018-09-10T09:46:51.049Z,36.36
2018-09-10T09:47:51.043Z,36.65
2018-09-10T09:48:51.039Z,36.83
2018-09-10T09:49:51.038Z,36.63
2018-09-10T09:50:51.074Z,37.32
2018-09-10T09:51:51.025Z,37.51
2018-09-10T09:52:51.023Z,36.83
2018-09-10T09:53:51.017Z,37.41
2018-09-10T09:54:51.013Z,38.19
2018-09-10T09:55:51.005Z,37.80
2018-09-10T09:56:51.006Z,37.99
2018-09-10T09:57:50.995Z,38.19
2018-09-10T09:58:50.994Z,37.88
2018-09-10T09:59:50.990Z,38.73
2018-09-10T10:00:50.980Z,39.12
2018-09-10T10:01:50.980Z,39.51
2018-09-10T10:02:50.967Z,39.03
2018-09-10T10:03:50.963Z,39.04
2018-09-10T10:04:50.959Z,39.41
2018-09-10T10:05:50.954Z,39.41
2018-09-10T10:06:50.948Z,39.82
2018-09-10T10:07:50.940Z,39.43
2018-09-10T10:08:50.936Z,39.04
2018-09-10T10:09:50.931Z,37.90
2018-09-10T10:10:50.923Z,38.09
2018-09-10T10:11:51.048Z,38.29
2018-09-10T10:12:50.912Z,38.01
2018-09-10T10:13:50.908Z,37.92
2018-09-10T10:14:50.898Z,37.64
2018-09-10T10:15:50.891Z,36.96
2018-09-10T10:16:50.891Z,36.98
2018-09-10T10:17:50.890Z,37.10
2018-09-10T10:18:50.873Z,36.22
2018-09-10T10:19:50.870Z,36.22
2018-09-10T10:20:50.863Z,36.14
2018-09-10T10:21:50.859Z,35.55
2018-09-10T10:22:50.849Z,34.58
2018-09-10T10:23:50.842Z,35.16
2018-09-10T10:24:50.838Z,34.88
2018-09-10T10:25:50.844Z,34.97
2018-09-10T10:26:50.827Z,34.58
2018-09-10T10:27:50.832Z,34.39
2018-09-10T10:28:50.817Z,34.21
2018-09-10T10:29:50.810Z,34.03
2018-09-10T10:30:50.804Z,33.18
2018-09-10T10:31:50.809Z,32.50
2018-09-10T10:32:50.795Z,32.91
2018-09-10T10:33:50.785Z,32.71
2018-09-10T10:34:50.778Z,32.24
2018-09-10T10:35:50.774Z,31.75
2018-09-10T10:36:50.772Z,31.28
2018-09-10T10:37:50.765Z,29.83
2018-09-10T10:38:50.755Z,29.64
2018-09-10T10:39:50.751Z,28.78
2018-09-10T10:40:50.750Z,27.90
2018-09-10T10:41:50.745Z,28.89
2018-09-10T10:42:50.736Z,28.41
2018-09-10T10:43:50.732Z,27.94
2018-09-10T10:44:50.728Z,27.45
2018-09-10T10:45:50.724Z,28.01
2018-09-10T10:46:50.719Z,28.28
2018-09-10T10:47:50.713Z,28.85
2018-09-10T10:48:50.712Z,29.71
2018-09-10T10:49:50.707Z,29.34
2018-09-10T10:50:50.702Z,28.47
2018-09-10T10:51:50.696Z,28.40
2018-09-10T10:52:50.699Z,28.22
2018-09-10T10:53:50.724Z,28.13
2018-09-10T10:54:50.680Z,27.36
2018-09-10T10:55:50.683Z,26.76
2018-09-10T10:56:50.674Z,27.34
2018-09-10T10:57:50.670Z,26.93
2018-09-10T10:58:50.667Z,28.11
2018-09-10T10:59:50.661Z,28.68
2018-09-10T11:00:50.656Z,28.19
2018-09-10T11:01:50.655Z,28.96
2018-09-10T11:02:50.648Z,30.51
2018-09-10T11:03:50.644Z,29.71
2018-09-10T11:04:50.642Z,29.81
2018-09-10T11:05:50.639Z,30.58
2018-09-10T11:06:50.633Z,30.87
2018-09-10T11:07:50.628Z,30.96
2018-09-10T11:08:50.625Z,31.35
2018-09-10T11:09:50.624Z,31.15
2018-09-10T11:10:50.619Z,31.04
2018-09-10T11:11:50.613Z,31.23
2018-09-10T11:12:50.607Z,32.09
2018-09-10T11:13:50.607Z,32.19
2018-09-10T11:14:50.598Z,32.18
2018-09-10T11:15:50.593Z,32.37
2018-09-10T11:16:50.588Z,31.79
2018-09-10T11:17:50.585Z,32.47
2018-09-10T11:18:50.581Z,32.06
2018-09-10T11:19:50.575Z,32.28
2018-09-10T11:20:50.570Z,31.60
2018-09-10T11:21:50.565Z,31.23
2018-09-10T11:22:50.566Z,30.38
2018-09-10T11:23:50.555Z,29.34
2018-09-10T11:24:50.550Z,28.19
2018-09-10T11:25:50.547Z,28.03
2018-09-10T11:26:50.544Z,25.71
2018-09-10T11:27:50.627Z,25.83
2018-09-10T11:28:50.534Z,25.34
2018-09-10T11:29:50.530Z,24.36
2018-09-10T11:30:50.526Z,24.82
2018-09-10T11:31:50.524Z,25.50
2018-09-10T11:32:50.515Z,25.85
2018-09-10T11:33:50.511Z,25.54
2018-09-10T11:34:50.514Z,26.89
2018-09-10T11:35:50.504Z,27.55
2018-09-10T11:36:50.500Z,28.71
2018-09-10T11:37:50.498Z,28.49
2018-09-10T11:38:50.492Z,29.74
2018-09-10T11:39:50.487Z,30.60
2018-09-10T11:40:50.632Z,31.19
2018-09-10T11:41:50.479Z,30.60
2018-09-10T11:42:50.474Z,31.20
2018-09-10T11:43:50.470Z,30.54
2018-09-10T11:44:50.464Z,29.39
2018-09-10T11:45:50.460Z,28.14
2018-09-10T11:46:50.457Z,26.89
2018-09-10T11:47:50.453Z,26.62
2018-09-10T11:48:50.458Z,25.87
2018-09-10T11:49:50.442Z,25.78
2018-09-10T11:50:50.439Z,25.38
2018-09-10T11:51:50.435Z,25.10
2018-09-10T11:52:50.431Z,23.84
2018-09-10T11:53:50.427Z,22.99
2018-09-10T11:54:50.422Z,23.20
2018-09-10T11:55:50.539Z,22.23
2018-09-10T11:56:50.417Z,22.49
2018-09-10T11:57:50.410Z,23.75
2018-09-10T11:58:50.407Z,24.32
2018-09-10T11:59:50.408Z,25.20
2018-09-10T12:00:50.400Z,25.88
2018-09-10T12:01:50.445Z,25.49
2018-09-10T12:02:50.393Z,25.49
2018-09-10T12:03:50.392Z,25.88
2018-09-10T12:04:50.385Z,25.38
2018-09-10T12:05:50.382Z,25.66
2018-09-10T12:06:50.383Z,27.23
2018-09-10T12:07:50.376Z,26.72
2018-09-10T12:08:50.374Z,26.33
2018-09-10T12:09:50.370Z,26.54
2018-09-10T12:10:50.364Z,25.56
2018-09-10T12:11:50.363Z,27.01
2018-09-10T12:12:50.359Z,26.60
2018-09-10T12:13:50.353Z,27.09
2018-09-10T12:14:50.350Z,26.82
2018-09-10T12:15:50.345Z,25.66
2018-09-10T12:16:50.361Z,25.66
2018-09-10T12:17:50.348Z,25.78
2018-09-10T12:18:50.336Z,24.42
2018-09-10T12:19:50.332Z,25.31
2018-09-10T12:20:50.328Z,24.71
2018-09-10T12:21:50.326Z,24.32
2018-09-10T12:22:50.322Z,24.52
2018-09-10T12:23:50.316Z,25.46
2018-09-10T12:24:50.315Z,25.94
2018-09-10T12:25:50.312Z,26.79
2018-09-10T12:26:50.309Z,26.98
2018-09-10T12:27:50.303Z,27.84
2018-09-10T12:28:50.307Z,28.03
2018-09-10T12:29:50.300Z,29.28
2018-09-10T12:30:50.294Z,29.28
2018-09-10T12:31:50.290Z,29.85
2018-09-10T12:32:50.284Z,29.66
2018-09-10T12:33:50.281Z,30.54
2018-09-10T12:34:50.289Z,30.34
2018-09-10T12:35:50.269Z,29.95
2018-09-10T12:36:50.270Z,30.13
2018-09-10T12:37:50.266Z,30.13
2018-09-10T12:38:50.262Z,30.81
2018-09-10T12:39:50.253Z,30.81
2018-09-10T12:40:50.255Z,30.71
2018-09-10T12:41:50.244Z,30.81
2018-09-10T12:42:50.239Z,29.53
2018-09-10T12:43:50.248Z,30.10
2018-09-10T12:44:50.241Z,29.71
2018-09-10T12:45:50.231Z,29.52
2018-09-10T12:46:50.220Z,29.42
2018-09-10T12:47:50.215Z,29.61
2018-09-10T12:48:50.213Z,29.02
2018-09-10T12:49:50.210Z,29.99
2018-09-10T12:50:50.205Z,30.47
2018-09-10T12:51:50.196Z,30.75
2018-09-10T12:52:50.190Z,31.24